sensor_id;sensor_type;location;lat;lon;timestamp;P1;durP1;ratioP1;P2;durP2;ratioP2
2021;SDS011;1015;49.756;6.994;2022-11-15T00:02:10;20.40;;;15.13;;
2021;SDS011;1015;49.756;6.994;2022-11-15T00:04:37;22.33;;;16.90;;
2021;SDS011;1015;49.756;6.994;2022-11-15T00:07:05;22.77;;;18.50;;
2021;SDS011;1015;49.756;6.994;2022-11-15T00:09:32;22.07;;;16.47;;
2021;SDS011;1015;49.756;6.994;2022-11-15T00:11:59;26.47;;;17.00;;
2021;SDS011;1015;49.756;6.994;2022-11-15T00:14:26;21.97;;;17.43;;
2021;SDS011;1015;49.756;6.994;2022-11-15T00:16:53;21.10;;;16.93;;
2021;SDS011;1015;49.756;6.994;2022-11-15T00:19:20;20.23;;;16.37;;
2021;SDS011;1015;49.756;6.994;2022-11-15T00:21:47;21.83;;;16.70;;
2021;SDS011;1015;49.756;6.994;2022-11-15T00:24:15;22.60;;;17.30;;
2021;SDS011;1015;49.756;6.994;2022-11-15T00:26:42;22.20;;;16.90;;
2021;SDS011;1015;49.756;6.994;2022-11-15T00:29:09;21.60;;;17.10;;
2021;SDS011;1015;49.756;6.994;2022-11-15T00:31:36;20.83;;;16.10;;
2021;SDS011;1015;49.756;6.994;2022-11-15T00:34:03;18.40;;;15.20;;
2021;SDS011;1015;49.756;6.994;2022-11-15T00:36:32;17.30;;;13.53;;
2021;SDS011;1015;49.756;6.994;2022-11-15T00:39:00;21.30;;;14.77;;
2021;SDS011;1015;49.756;6.994;2022-11-15T00:41:28;15.13;;;12.50;;
2021;SDS011;1015;49.756;6.994;2022-11-15T00:43:55;18.77;;;14.10;;
2021;SDS011;1015;49.756;6.994;2022-11-15T00:46:22;15.60;;;13.20;;
2021;SDS011;1015;49.756;6.994;2022-11-15T00:48:49;15.30;;;12.73;;
2021;SDS011;1015;49.756;6.994;2022-11-15T00:51:16;16.07;;;12.73;;
2021;SDS011;1015;49.756;6.994;2022-11-15T00:53:43;15.33;;;12.33;;
2021;SDS011;1015;49.756;6.994;2022-11-15T00:56:10;16.70;;;12.00;;
2021;SDS011;1015;49.756;6.994;2022-11-15T00:58:38;14.97;;;12.50;;
2021;SDS011;1015;49.756;6.994;2022-11-15T01:01:06;15.37;;;11.30;;
2021;SDS011;1015;49.756;6.994;2022-11-15T01:03:34;14.07;;;10.93;;
2021;SDS011;1015;49.756;6.994;2022-11-15T01:06:01;12.30;;;10.30;;
2021;SDS011;1015;49.756;6.994;2022-11-15T01:08:28;15.30;;;10.77;;
2021;SDS011;1015;49.756;6.994;2022-11-15T01:10:59;11.80;;;9.90;;
2021;SDS011;1015;49.756;6.994;2022-11-15T01:13:29;13.07;;;11.03;;
2021;SDS011;1015;49.756;6.994;2022-11-15T01:15:58;15.57;;;11.50;;
2021;SDS011;1015;49.756;6.994;2022-11-15T01:18:25;16.43;;;12.23;;
2021;SDS011;1015;49.756;6.994;2022-11-15T01:20:52;16.50;;;12.43;;
2021;SDS011;1015;49.756;6.994;2022-11-15T01:23:19;15.77;;;13.37;;
2021;SDS011;1015;49.756;6.994;2022-11-15T01:25:46;17.23;;;13.60;;
2021;SDS011;1015;49.756;6.994;2022-11-15T01:28:13;14.73;;;13.17;;
2021;SDS011;1015;49.756;6.994;2022-11-15T01:30:40;15.63;;;11.90;;
2021;SDS011;1015;49.756;6.994;2022-11-15T01:33:08;14.83;;;12.50;;
2021;SDS011;1015;49.756;6.994;2022-11-15T01:35:38;14.63;;;12.27;;
2021;SDS011;1015;49.756;6.994;2022-11-15T01:38:05;14.80;;;13.20;;
2021;SDS011;1015;49.756;6.994;2022-11-15T01:40:32;17.40;;;13.73;;
2021;SDS011;1015;49.756;6.994;2022-11-15T01:42:59;16.13;;;13.40;;
2021;SDS011;1015;49.756;6.994;2022-11-15T01:45:41;15.17;;;13.23;;
2021;SDS011;1015;49.756;6.994;2022-11-15T01:48:18;14.53;;;12.23;;
2021;SDS011;1015;49.756;6.994;2022-11-15T01:50:46;16.90;;;13.10;;
2021;SDS011;1015;49.756;6.994;2022-11-15T01:53:13;16.97;;;13.93;;
2021;SDS011;1015;49.756;6.994;2022-11-15T01:55:41;16.60;;;14.10;;
2021;SDS011;1015;49.756;6.994;2022-11-15T01:58:08;19.07;;;14.30;;
2021;SDS011;1015;49.756;6.994;2022-11-15T02:00:35;16.77;;;14.10;;
2021;SDS011;1015;49.756;6.994;2022-11-15T02:03:02;18.10;;;14.10;;
2021;SDS011;1015;49.756;6.994;2022-11-15T02:05:31;17.70;;;13.30;;
2021;SDS011;1015;49.756;6.994;2022-11-15T02:07:59;16.07;;;13.33;;
2021;SDS011;1015;49.756;6.994;2022-11-15T02:10:27;15.30;;;13.50;;
2021;SDS011;1015;49.756;6.994;2022-11-15T02:12:54;16.17;;;14.30;;
2021;SDS011;1015;49.756;6.994;2022-11-15T02:15:23;16.57;;;13.53;;
2021;SDS011;1015;49.756;6.994;2022-11-15T02:17:56;15.83;;;12.47;;
2021;SDS011;1015;49.756;6.994;2022-11-15T02:20:39;16.83;;;13.97;;
2021;SDS011;1015;49.756;6.994;2022-11-15T02:26:27;12.43;;;10.97;;
2021;SDS011;1015;49.756;6.994;2022-11-15T02:29:19;14.17;;;11.83;;
2021;SDS011;1015;49.756;6.994;2022-11-15T02:31:57;13.63;;;11.17;;
2021;SDS011;1015;49.756;6.994;2022-11-15T02:34:33;13.70;;;10.63;;
2021;SDS011;1015;49.756;6.994;2022-11-15T02:37:11;13.07;;;11.00;;
2021;SDS011;1015;49.756;6.994;2022-11-15T02:39:44;12.40;;;10.73;;
2021;SDS011;1015;49.756;6.994;2022-11-15T02:42:17;11.67;;;10.47;;
2021;SDS011;1015;49.756;6.994;2022-11-15T02:45:01;12.20;;;10.83;;
2021;SDS011;1015;49.756;6.994;2022-11-15T02:47:35;11.87;;;10.17;;
2021;SDS011;1015;49.756;6.994;2022-11-15T02:50:09;12.00;;;10.50;;
2021;SDS011;1015;49.756;6.994;2022-11-15T02:52:38;11.10;;;10.00;;
2021;SDS011;1015;49.756;6.994;2022-11-15T02:57:57;11.60;;;9.97;;
2021;SDS011;1015;49.756;6.994;2022-11-15T03:00:45;12.50;;;10.30;;
2021;SDS011;1015;49.756;6.994;2022-11-15T03:03:23;12.43;;;9.80;;
2021;SDS011;1015;49.756;6.994;2022-11-15T03:06:00;13.73;;;10.73;;
2021;SDS011;1015;49.756;6.994;2022-11-15T03:08:37;11.87;;;10.47;;
2021;SDS011;1015;49.756;6.994;2022-11-15T03:11:17;12.20;;;10.13;;
2021;SDS011;1015;49.756;6.994;2022-11-15T03:13:46;13.27;;;10.30;;
2021;SDS011;1015;49.756;6.994;2022-11-15T03:16:23;11.57;;;10.03;;
2021;SDS011;1015;49.756;6.994;2022-11-15T03:18:55;13.07;;;10.43;;
2021;SDS011;1015;49.756;6.994;2022-11-15T03:21:27;11.97;;;10.00;;
2021;SDS011;1015;49.756;6.994;2022-11-15T03:23:56;11.50;;;10.00;;
2021;SDS011;1015;49.756;6.994;2022-11-15T03:26:27;12.40;;;10.27;;
2021;SDS011;1015;49.756;6.994;2022-11-15T03:28:57;13.73;;;10.97;;
2021;SDS011;1015;49.756;6.994;2022-11-15T03:31:28;12.77;;;11.00;;
2021;SDS011;1015;49.756;6.994;2022-11-15T03:34:19;13.57;;;11.50;;
2021;SDS011;1015;49.756;6.994;2022-11-15T03:36:50;13.17;;;11.43;;
2021;SDS011;1015;49.756;6.994;2022-11-15T03:39:18;14.70;;;11.90;;
2021;SDS011;1015;49.756;6.994;2022-11-15T03:41:48;14.00;;;10.70;;
2021;SDS011;1015;49.756;6.994;2022-11-15T03:44:20;13.90;;;11.70;;
2021;SDS011;1015;49.756;6.994;2022-11-15T03:47:02;18.03;;;10.50;;
2021;SDS011;1015;49.756;6.994;2022-11-15T03:49:36;13.70;;;9.90;;
2021;SDS011;1015;49.756;6.994;2022-11-15T03:52:09;13.10;;;10.80;;
2021;SDS011;1015;49.756;6.994;2022-11-15T03:54:37;13.53;;;10.20;;
2021;SDS011;1015;49.756;6.994;2022-11-15T03:57:14;11.53;;;9.50;;
2021;SDS011;1015;49.756;6.994;2022-11-15T03:59:41;13.40;;;10.50;;
2021;SDS011;1015;49.756;6.994;2022-11-15T04:02:08;10.40;;;9.07;;
2021;SDS011;1015;49.756;6.994;2022-11-15T04:04:37;12.03;;;9.20;;
2021;SDS011;1015;49.756;6.994;2022-11-15T04:07:04;11.90;;;9.87;;
2021;SDS011;1015;49.756;6.994;2022-11-15T04:09:31;11.63;;;9.93;;
2021;SDS011;1015;49.756;6.994;2022-11-15T04:11:58;11.57;;;9.60;;
2021;SDS011;1015;49.756;6.994;2022-11-15T04:14:25;12.60;;;10.20;;
2021;SDS011;1015;49.756;6.994;2022-11-15T04:16:52;13.83;;;9.47;;
2021;SDS011;1015;49.756;6.994;2022-11-15T04:19:18;11.13;;;9.47;;
2021;SDS011;1015;49.756;6.994;2022-11-15T04:22:07;10.00;;;8.30;;
2021;SDS011;1015;49.756;6.994;2022-11-15T04:24:51;11.33;;;9.20;;
2021;SDS011;1015;49.756;6.994;2022-11-15T04:27:18;13.77;;;10.20;;
2021;SDS011;1015;49.756;6.994;2022-11-15T04:29:45;11.43;;;9.97;;
2021;SDS011;1015;49.756;6.994;2022-11-15T04:32:12;12.80;;;9.87;;
2021;SDS011;1015;49.756;6.994;2022-11-15T04:34:39;13.07;;;10.67;;
2021;SDS011;1015;49.756;6.994;2022-11-15T04:37:07;14.97;;;10.60;;
2021;SDS011;1015;49.756;6.994;2022-11-15T04:39:40;12.30;;;10.10;;
2021;SDS011;1015;49.756;6.994;2022-11-15T04:42:08;13.60;;;10.60;;
2021;SDS011;1015;49.756;6.994;2022-11-15T04:44:35;15.10;;;11.17;;
2021;SDS011;1015;49.756;6.994;2022-11-15T04:47:02;14.77;;;10.57;;
2021;SDS011;1015;49.756;6.994;2022-11-15T04:49:29;13.93;;;10.10;;
2021;SDS011;1015;49.756;6.994;2022-11-15T04:51:56;14.17;;;10.00;;
2021;SDS011;1015;49.756;6.994;2022-11-15T04:54:25;11.70;;;9.33;;
2021;SDS011;1015;49.756;6.994;2022-11-15T04:56:51;11.10;;;9.23;;
2021;SDS011;1015;49.756;6.994;2022-11-15T04:59:18;10.47;;;8.60;;
2021;SDS011;1015;49.756;6.994;2022-11-15T05:01:45;12.03;;;9.93;;
2021;SDS011;1015;49.756;6.994;2022-11-15T05:04:12;12.60;;;10.33;;
2021;SDS011;1015;49.756;6.994;2022-11-15T05:06:44;12.23;;;9.80;;
2021;SDS011;1015;49.756;6.994;2022-11-15T05:09:12;11.47;;;9.60;;
2021;SDS011;1015;49.756;6.994;2022-11-15T05:11:40;11.67;;;10.10;;
2021;SDS011;1015;49.756;6.994;2022-11-15T05:14:07;16.63;;;9.50;;
2021;SDS011;1015;49.756;6.994;2022-11-15T05:16:35;12.10;;;9.03;;
2021;SDS011;1015;49.756;6.994;2022-11-15T05:19:02;13.60;;;9.57;;
2021;SDS011;1015;49.756;6.994;2022-11-15T05:21:29;14.40;;;10.00;;
2021;SDS011;1015;49.756;6.994;2022-11-15T05:23:57;14.53;;;9.83;;
2021;SDS011;1015;49.756;6.994;2022-11-15T05:26:24;12.20;;;9.30;;
2021;SDS011;1015;49.756;6.994;2022-11-15T05:28:53;12.57;;;9.80;;
2021;SDS011;1015;49.756;6.994;2022-11-15T05:31:21;9.20;;;7.90;;
2021;SDS011;1015;49.756;6.994;2022-11-15T05:33:48;9.00;;;7.10;;
2021;SDS011;1015;49.756;6.994;2022-11-15T05:36:17;7.60;;;6.63;;
2021;SDS011;1015;49.756;6.994;2022-11-15T05:38:48;9.90;;;8.13;;
2021;SDS011;1015;49.756;6.994;2022-11-15T05:41:16;9.47;;;7.77;;
2021;SDS011;1015;49.756;6.994;2022-11-15T05:43:45;9.80;;;6.97;;
2021;SDS011;1015;49.756;6.994;2022-11-15T05:46:16;8.63;;;7.20;;
2021;SDS011;1015;49.756;6.994;2022-11-15T05:48:45;10.47;;;8.20;;
2021;SDS011;1015;49.756;6.994;2022-11-15T05:51:15;11.60;;;8.90;;
2021;SDS011;1015;49.756;6.994;2022-11-15T05:53:43;10.30;;;8.73;;
2021;SDS011;1015;49.756;6.994;2022-11-15T05:56:11;12.10;;;9.20;;
2021;SDS011;1015;49.756;6.994;2022-11-15T05:58:40;9.93;;;8.63;;
2021;SDS011;1015;49.756;6.994;2022-11-15T06:01:07;11.20;;;8.93;;
2021;SDS011;1015;49.756;6.994;2022-11-15T06:03:36;9.50;;;8.13;;
2021;SDS011;1015;49.756;6.994;2022-11-15T06:06:03;10.73;;;8.90;;
2021;SDS011;1015;49.756;6.994;2022-11-15T06:08:31;12.97;;;7.60;;
2021;SDS011;1015;49.756;6.994;2022-11-15T06:11:02;9.87;;;7.60;;
2021;SDS011;1015;49.756;6.994;2022-11-15T06:13:30;8.20;;;6.93;;
2021;SDS011;1015;49.756;6.994;2022-11-15T06:15:57;9.20;;;7.10;;
2021;SDS011;1015;49.756;6.994;2022-11-15T06:18:25;9.13;;;7.60;;
2021;SDS011;1015;49.756;6.994;2022-11-15T06:20:53;7.30;;;6.60;;
2021;SDS011;1015;49.756;6.994;2022-11-15T06:23:25;7.00;;;6.20;;
2021;SDS011;1015;49.756;6.994;2022-11-15T06:25:52;7.63;;;6.07;;
2021;SDS011;1015;49.756;6.994;2022-11-15T06:28:19;7.63;;;6.30;;
2021;SDS011;1015;49.756;6.994;2022-11-15T06:30:46;6.43;;;5.70;;
2021;SDS011;1015;49.756;6.994;2022-11-15T06:33:14;7.27;;;6.23;;
2021;SDS011;1015;49.756;6.994;2022-11-15T06:35:41;7.60;;;6.90;;
2021;SDS011;1015;49.756;6.994;2022-11-15T06:38:10;9.37;;;7.83;;
2021;SDS011;1015;49.756;6.994;2022-11-15T06:40:37;7.47;;;6.50;;
2021;SDS011;1015;49.756;6.994;2022-11-15T06:43:05;9.00;;;6.50;;
2021;SDS011;1015;49.756;6.994;2022-11-15T06:45:32;8.33;;;7.00;;
2021;SDS011;1015;49.756;6.994;2022-11-15T06:47:59;7.30;;;6.37;;
2021;SDS011;1015;49.756;6.994;2022-11-15T06:50:26;8.60;;;6.53;;
2021;SDS011;1015;49.756;6.994;2022-11-15T06:52:53;8.90;;;6.83;;
2021;SDS011;1015;49.756;6.994;2022-11-15T06:55:22;10.53;;;6.90;;
2021;SDS011;1015;49.756;6.994;2022-11-15T06:57:49;8.20;;;6.10;;
2021;SDS011;1015;49.756;6.994;2022-11-15T07:00:18;10.03;;;6.27;;
2021;SDS011;1015;49.756;6.994;2022-11-15T07:02:46;9.40;;;6.70;;
2021;SDS011;1015;49.756;6.994;2022-11-15T07:05:13;6.87;;;6.17;;
2021;SDS011;1015;49.756;6.994;2022-11-15T07:07:41;8.00;;;6.30;;
2021;SDS011;1015;49.756;6.994;2022-11-15T07:10:08;6.80;;;5.50;;
2021;SDS011;1015;49.756;6.994;2022-11-15T07:12:37;5.90;;;5.30;;
2021;SDS011;1015;49.756;6.994;2022-11-15T07:15:04;6.87;;;4.70;;
2021;SDS011;1015;49.756;6.994;2022-11-15T07:17:32;4.53;;;4.13;;
2021;SDS011;1015;49.756;6.994;2022-11-15T07:19:59;4.20;;;3.80;;
2021;SDS011;1015;49.756;6.994;2022-11-15T07:22:26;7.97;;;4.10;;
2021;SDS011;1015;49.756;6.994;2022-11-15T07:24:53;5.20;;;3.80;;
2021;SDS011;1015;49.756;6.994;2022-11-15T07:27:20;4.17;;;3.63;;
2021;SDS011;1015;49.756;6.994;2022-11-15T07:29:48;4.60;;;3.90;;
2021;SDS011;1015;49.756;6.994;2022-11-15T07:32:15;4.37;;;3.97;;
2021;SDS011;1015;49.756;6.994;2022-11-15T07:34:42;3.60;;;3.30;;
2021;SDS011;1015;49.756;6.994;2022-11-15T07:37:11;4.97;;;3.90;;
2021;SDS011;1015;49.756;6.994;2022-11-15T07:39:38;4.13;;;3.53;;
2021;SDS011;1015;49.756;6.994;2022-11-15T07:42:05;5.77;;;4.00;;
2021;SDS011;1015;49.756;6.994;2022-11-15T07:44:50;3.70;;;3.40;;
2021;SDS011;1015;49.756;6.994;2022-11-15T07:47:17;5.30;;;4.43;;
2021;SDS011;1015;49.756;6.994;2022-11-15T07:49:45;5.63;;;5.00;;
2021;SDS011;1015;49.756;6.994;2022-11-15T07:52:12;4.83;;;4.40;;
2021;SDS011;1015;49.756;6.994;2022-11-15T07:54:39;4.63;;;4.20;;
2021;SDS011;1015;49.756;6.994;2022-11-15T07:57:06;4.30;;;3.93;;
2021;SDS011;1015;49.756;6.994;2022-11-15T07:59:34;5.50;;;5.00;;
2021;SDS011;1015;49.756;6.994;2022-11-15T08:02:02;5.73;;;4.23;;
2021;SDS011;1015;49.756;6.994;2022-11-15T08:04:29;8.90;;;5.03;;
2021;SDS011;1015;49.756;6.994;2022-11-15T08:06:56;4.70;;;4.30;;
2021;SDS011;1015;49.756;6.994;2022-11-15T08:09:24;11.27;;;5.20;;
2021;SDS011;1015;49.756;6.994;2022-11-15T08:11:51;6.27;;;5.60;;
2021;SDS011;1015;49.756;6.994;2022-11-15T08:14:18;6.60;;;5.70;;
2021;SDS011;1015;49.756;6.994;2022-11-15T08:16:47;6.40;;;5.80;;
2021;SDS011;1015;49.756;6.994;2022-11-15T08:19:15;7.27;;;6.57;;
2021;SDS011;1015;49.756;6.994;2022-11-15T08:21:42;9.70;;;7.93;;
2021;SDS011;1015;49.756;6.994;2022-11-15T08:24:09;8.70;;;7.80;;
2021;SDS011;1015;49.756;6.994;2022-11-15T08:26:37;9.60;;;7.50;;
2021;SDS011;1015;49.756;6.994;2022-11-15T08:29:04;10.00;;;8.43;;
2021;SDS011;1015;49.756;6.994;2022-11-15T08:31:32;14.23;;;11.37;;
2021;SDS011;1015;49.756;6.994;2022-11-15T08:34:00;13.73;;;9.80;;
2021;SDS011;1015;49.756;6.994;2022-11-15T08:36:28;10.80;;;8.00;;
2021;SDS011;1015;49.756;6.994;2022-11-15T08:38:55;13.67;;;9.40;;
2021;SDS011;1015;49.756;6.994;2022-11-15T08:41:25;13.63;;;9.30;;
2021;SDS011;1015;49.756;6.994;2022-11-15T08:43:54;13.80;;;10.50;;
2021;SDS011;1015;49.756;6.994;2022-11-15T08:46:21;11.50;;;9.37;;
2021;SDS011;1015;49.756;6.994;2022-11-15T08:48:48;11.13;;;8.93;;
2021;SDS011;1015;49.756;6.994;2022-11-15T08:51:15;12.10;;;10.20;;
2021;SDS011;1015;49.756;6.994;2022-11-15T08:53:43;13.10;;;10.80;;
2021;SDS011;1015;49.756;6.994;2022-11-15T08:56:11;14.23;;;10.77;;
2021;SDS011;1015;49.756;6.994;2022-11-15T08:58:40;10.40;;;9.10;;
2021;SDS011;1015;49.756;6.994;2022-11-15T09:01:13;12.57;;;10.87;;
2021;SDS011;1015;49.756;6.994;2022-11-15T09:03:42;10.40;;;8.40;;
2021;SDS011;1015;49.756;6.994;2022-11-15T09:06:09;11.97;;;9.70;;
2021;SDS011;1015;49.756;6.994;2022-11-15T09:08:36;12.63;;;9.40;;
2021;SDS011;1015;49.756;6.994;2022-11-15T09:11:04;12.00;;;8.27;;
2021;SDS011;1015;49.756;6.994;2022-11-15T09:13:32;13.10;;;10.27;;
2021;SDS011;1015;49.756;6.994;2022-11-15T09:15:59;10.30;;;9.20;;
2021;SDS011;1015;49.756;6.994;2022-11-15T09:18:27;11.70;;;10.03;;
2021;SDS011;1015;49.756;6.994;2022-11-15T09:20:55;12.47;;;10.37;;
2021;SDS011;1015;49.756;6.994;2022-11-15T09:23:22;8.40;;;7.50;;
2021;SDS011;1015;49.756;6.994;2022-11-15T09:25:50;8.13;;;7.20;;
2021;SDS011;1015;49.756;6.994;2022-11-15T09:28:18;9.87;;;7.83;;
2021;SDS011;1015;49.756;6.994;2022-11-15T09:30:45;10.20;;;9.03;;
2021;SDS011;1015;49.756;6.994;2022-11-15T09:33:12;7.10;;;6.40;;
2021;SDS011;1015;49.756;6.994;2022-11-15T09:35:39;6.10;;;4.70;;
2021;SDS011;1015;49.756;6.994;2022-11-15T09:38:07;6.40;;;5.80;;
2021;SDS011;1015;49.756;6.994;2022-11-15T09:40:35;7.60;;;6.90;;
2021;SDS011;1015;49.756;6.994;2022-11-15T09:43:16;8.70;;;5.50;;
2021;SDS011;1015;49.756;6.994;2022-11-15T09:45:57;12.00;;;10.60;;
2021;SDS011;1015;49.756;6.994;2022-11-15T09:48:39;13.10;;;9.30;;
2021;SDS011;1015;49.756;6.994;2022-11-15T09:51:21;11.53;;;8.67;;
2021;SDS011;1015;49.756;6.994;2022-11-15T09:53:56;10.70;;;8.47;;
2021;SDS011;1015;49.756;6.994;2022-11-15T09:56:28;7.93;;;5.73;;
2021;SDS011;1015;49.756;6.994;2022-11-15T09:59:01;5.73;;;5.13;;
2021;SDS011;1015;49.756;6.994;2022-11-15T10:01:41;5.57;;;4.13;;
2021;SDS011;1015;49.756;6.994;2022-11-15T10:04:14;4.73;;;4.13;;
2021;SDS011;1015;49.756;6.994;2022-11-15T10:06:42;3.80;;;3.40;;
2021;SDS011;1015;49.756;6.994;2022-11-15T10:09:16;9.23;;;3.50;;
2021;SDS011;1015;49.756;6.994;2022-11-15T10:11:47;4.77;;;3.57;;
2021;SDS011;1015;49.756;6.994;2022-11-15T10:14:17;3.47;;;3.17;;
2021;SDS011;1015;49.756;6.994;2022-11-15T10:19:53;4.20;;;2.83;;
2021;SDS011;1015;49.756;6.994;2022-11-15T10:22:27;3.90;;;3.03;;
2021;SDS011;1015;49.756;6.994;2022-11-15T10:25:01;2.70;;;2.47;;
2021;SDS011;1015;49.756;6.994;2022-11-15T10:27:39;4.87;;;2.97;;
2021;SDS011;1015;49.756;6.994;2022-11-15T10:30:12;3.10;;;2.57;;
2021;SDS011;1015;49.756;6.994;2022-11-15T10:32:43;3.27;;;2.40;;
2021;SDS011;1015;49.756;6.994;2022-11-15T10:35:19;3.70;;;2.77;;
2021;SDS011;1015;49.756;6.994;2022-11-15T10:37:48;2.80;;;2.50;;
2021;SDS011;1015;49.756;6.994;2022-11-15T10:40:16;4.03;;;2.60;;
2021;SDS011;1015;49.756;6.994;2022-11-15T10:42:45;4.50;;;2.40;;
2021;SDS011;1015;49.756;6.994;2022-11-15T10:45:24;2.63;;;2.30;;
2021;SDS011;1015;49.756;6.994;2022-11-15T10:47:53;2.57;;;2.33;;
2021;SDS011;1015;49.756;6.994;2022-11-15T10:50:29;4.13;;;2.10;;
2021;SDS011;1015;49.756;6.994;2022-11-15T10:52:58;2.10;;;1.80;;
2021;SDS011;1015;49.756;6.994;2022-11-15T10:55:28;2.53;;;2.00;;
2021;SDS011;1015;49.756;6.994;2022-11-15T10:58:01;2.33;;;1.83;;
2021;SDS011;1015;49.756;6.994;2022-11-15T11:00:32;1.60;;;1.50;;
2021;SDS011;1015;49.756;6.994;2022-11-15T11:03:02;2.47;;;1.70;;
2021;SDS011;1015;49.756;6.994;2022-11-15T11:05:33;2.47;;;2.00;;
2021;SDS011;1015;49.756;6.994;2022-11-15T11:08:02;1.80;;;1.60;;
2021;SDS011;1015;49.756;6.994;2022-11-15T11:10:31;3.77;;;1.83;;
2021;SDS011;1015;49.756;6.994;2022-11-15T11:13:12;2.33;;;1.87;;
2021;SDS011;1015;49.756;6.994;2022-11-15T11:15:41;2.73;;;2.10;;
2021;SDS011;1015;49.756;6.994;2022-11-15T11:18:14;2.47;;;1.93;;
2021;SDS011;1015;49.756;6.994;2022-11-15T11:20:46;1.80;;;1.70;;
2021;SDS011;1015;49.756;6.994;2022-11-15T11:23:25;2.00;;;1.80;;
2021;SDS011;1015;49.756;6.994;2022-11-15T11:26:10;2.20;;;1.33;;
2021;SDS011;1015;49.756;6.994;2022-11-15T11:28:59;4.73;;;1.90;;
2021;SDS011;1015;49.756;6.994;2022-11-15T11:31:35;2.80;;;1.70;;
2021;SDS011;1015;49.756;6.994;2022-11-15T11:34:13;4.23;;;1.87;;
2021;SDS011;1015;49.756;6.994;2022-11-15T11:36:45;3.40;;;2.00;;
2021;SDS011;1015;49.756;6.994;2022-11-15T11:39:19;2.40;;;2.20;;
2021;SDS011;1015;49.756;6.994;2022-11-15T11:41:59;2.17;;;1.63;;
2021;SDS011;1015;49.756;6.994;2022-11-15T11:44:40;1.77;;;1.50;;
2021;SDS011;1015;49.756;6.994;2022-11-15T11:47:18;2.43;;;2.00;;
2021;SDS011;1015;49.756;6.994;2022-11-15T11:49:49;2.30;;;2.10;;
2021;SDS011;1015;49.756;6.994;2022-11-15T11:52:18;2.27;;;1.80;;
2021;SDS011;1015;49.756;6.994;2022-11-15T11:54:57;2.37;;;1.93;;
2021;SDS011;1015;49.756;6.994;2022-11-15T11:57:29;2.77;;;1.70;;
2021;SDS011;1015;49.756;6.994;2022-11-15T12:00:03;2.50;;;2.07;;
2021;SDS011;1015;49.756;6.994;2022-11-15T12:02:42;1.60;;;1.40;;
2021;SDS011;1015;49.756;6.994;2022-11-15T12:05:13;1.43;;;1.33;;
2021;SDS011;1015;49.756;6.994;2022-11-15T12:07:44;2.63;;;1.80;;
2021;SDS011;1015;49.756;6.994;2022-11-15T12:10:16;1.63;;;1.53;;
2021;SDS011;1015;49.756;6.994;2022-11-15T12:12:49;3.30;;;2.47;;
2021;SDS011;1015;49.756;6.994;2022-11-15T12:15:22;2.00;;;1.50;;
2021;SDS011;1015;49.756;6.994;2022-11-15T12:17:53;2.97;;;1.43;;
2021;SDS011;1015;49.756;6.994;2022-11-15T12:20:23;1.70;;;1.50;;
2021;SDS011;1015;49.756;6.994;2022-11-15T12:23:01;1.60;;;1.40;;
2021;SDS011;1015;49.756;6.994;2022-11-15T12:25:32;3.73;;;1.60;;
2021;SDS011;1015;49.756;6.994;2022-11-15T12:28:08;1.40;;;1.30;;
2021;SDS011;1015;49.756;6.994;2022-11-15T12:30:43;1.40;;;1.30;;
2021;SDS011;1015;49.756;6.994;2022-11-15T12:33:31;1.63;;;1.47;;
2021;SDS011;1015;49.756;6.994;2022-11-15T12:36:02;1.67;;;1.30;;
2021;SDS011;1015;49.756;6.994;2022-11-15T12:41:18;1.53;;;1.40;;
2021;SDS011;1015;49.756;6.994;2022-11-15T12:43:46;2.07;;;1.60;;
2021;SDS011;1015;49.756;6.994;2022-11-15T12:46:19;1.70;;;1.60;;
2021;SDS011;1015;49.756;6.994;2022-11-15T12:48:50;1.50;;;1.40;;
2021;SDS011;1015;49.756;6.994;2022-11-15T12:51:19;1.83;;;1.70;;
2021;SDS011;1015;49.756;6.994;2022-11-15T12:53:48;3.87;;;1.53;;
2021;SDS011;1015;49.756;6.994;2022-11-15T12:56:21;1.70;;;1.50;;
2021;SDS011;1015;49.756;6.994;2022-11-15T12:58:51;2.70;;;1.80;;
2021;SDS011;1015;49.756;6.994;2022-11-15T13:04:28;2.20;;;1.30;;
2021;SDS011;1015;49.756;6.994;2022-11-15T13:06:57;1.57;;;1.30;;
2021;SDS011;1015;49.756;6.994;2022-11-15T13:15:31;1.33;;;1.23;;
2021;SDS011;1015;49.756;6.994;2022-11-15T13:21:17;1.20;;;1.10;;
2021;SDS011;1015;49.756;6.994;2022-11-15T13:24:04;1.10;;;1.00;;
2021;SDS011;1015;49.756;6.994;2022-11-15T13:26:37;1.23;;;1.13;;
2021;SDS011;1015;49.756;6.994;2022-11-15T13:29:12;1.10;;;1.00;;
2021;SDS011;1015;49.756;6.994;2022-11-15T13:31:43;1.20;;;1.10;;
2021;SDS011;1015;49.756;6.994;2022-11-15T13:34:15;1.20;;;1.10;;
2021;SDS011;1015;49.756;6.994;2022-11-15T13:36:51;1.40;;;1.20;;
2021;SDS011;1015;49.756;6.994;2022-11-15T13:39:25;1.10;;;1.10;;
2021;SDS011;1015;49.756;6.994;2022-11-15T13:41:54;1.63;;;1.53;;
2021;SDS011;1015;49.756;6.994;2022-11-15T13:44:21;1.50;;;1.40;;
2021;SDS011;1015;49.756;6.994;2022-11-15T13:47:00;1.40;;;1.30;;
2021;SDS011;1015;49.756;6.994;2022-11-15T13:49:29;1.80;;;1.57;;
2021;SDS011;1015;49.756;6.994;2022-11-15T13:51:58;2.50;;;1.47;;
2021;SDS011;1015;49.756;6.994;2022-11-15T13:54:28;1.80;;;1.40;;
2021;SDS011;1015;49.756;6.994;2022-11-15T13:56:58;1.70;;;1.60;;
2021;SDS011;1015;49.756;6.994;2022-11-15T13:59:28;1.47;;;1.20;;
2021;SDS011;1015;49.756;6.994;2022-11-15T14:01:58;1.47;;;1.20;;
2021;SDS011;1015;49.756;6.994;2022-11-15T14:04:27;1.53;;;1.43;;
2021;SDS011;1015;49.756;6.994;2022-11-15T14:07:00;1.47;;;1.20;;
2021;SDS011;1015;49.756;6.994;2022-11-15T14:09:32;3.03;;;1.40;;
2021;SDS011;1015;49.756;6.994;2022-11-15T14:14:49;1.93;;;1.70;;
2021;SDS011;1015;49.756;6.994;2022-11-15T14:17:19;2.27;;;1.10;;
2021;SDS011;1015;49.756;6.994;2022-11-15T14:19:48;1.20;;;1.10;;
2021;SDS011;1015;49.756;6.994;2022-11-15T14:22:19;1.50;;;1.40;;
2021;SDS011;1015;49.756;6.994;2022-11-15T14:25:03;1.40;;;1.30;;
2021;SDS011;1015;49.756;6.994;2022-11-15T14:27:40;1.67;;;1.30;;
2021;SDS011;1015;49.756;6.994;2022-11-15T14:30:12;1.67;;;1.30;;
2021;SDS011;1015;49.756;6.994;2022-11-15T14:32:42;1.50;;;1.40;;
2021;SDS011;1015;49.756;6.994;2022-11-15T14:35:13;1.77;;;1.67;;
2021;SDS011;1015;49.756;6.994;2022-11-15T14:37:43;3.67;;;2.90;;
2021;SDS011;1015;49.756;6.994;2022-11-15T14:40:12;2.10;;;1.90;;
2021;SDS011;1015;49.756;6.994;2022-11-15T14:42:40;2.50;;;1.77;;
2021;SDS011;1015;49.756;6.994;2022-11-15T14:45:09;1.70;;;1.60;;
2021;SDS011;1015;49.756;6.994;2022-11-15T14:47:38;1.70;;;1.60;;
2021;SDS011;1015;49.756;6.994;2022-11-15T14:50:05;3.40;;;1.70;;
2021;SDS011;1015;49.756;6.994;2022-11-15T14:52:36;3.63;;;1.67;;
2021;SDS011;1015;49.756;6.994;2022-11-15T14:55:11;1.60;;;1.50;;
2021;SDS011;1015;49.756;6.994;2022-11-15T14:57:42;1.80;;;1.70;;
2021;SDS011;1015;49.756;6.994;2022-11-15T15:00:10;3.80;;;1.80;;
2021;SDS011;1015;49.756;6.994;2022-11-15T15:02:37;2.53;;;1.70;;
2021;SDS011;1015;49.756;6.994;2022-11-15T15:05:11;2.17;;;1.97;;
2021;SDS011;1015;49.756;6.994;2022-11-15T15:07:40;2.00;;;1.70;;
2021;SDS011;1015;49.756;6.994;2022-11-15T15:10:09;2.30;;;2.10;;
2021;SDS011;1015;49.756;6.994;2022-11-15T15:12:37;4.00;;;2.10;;
2021;SDS011;1015;49.756;6.994;2022-11-15T15:15:05;2.80;;;2.10;;
2021;SDS011;1015;49.756;6.994;2022-11-15T15:17:38;2.30;;;2.10;;
2021;SDS011;1015;49.756;6.994;2022-11-15T15:20:05;2.80;;;2.20;;
2021;SDS011;1015;49.756;6.994;2022-11-15T15:22:33;2.50;;;1.80;;
2021;SDS011;1015;49.756;6.994;2022-11-15T15:25:00;2.23;;;2.03;;
2021;SDS011;1015;49.756;6.994;2022-11-15T15:27:28;2.03;;;1.93;;
2021;SDS011;1015;49.756;6.994;2022-11-15T15:29:56;1.97;;;1.87;;
2021;SDS011;1015;49.756;6.994;2022-11-15T15:32:22;2.53;;;2.30;;
2021;SDS011;1015;49.756;6.994;2022-11-15T15:34:49;3.90;;;3.60;;
2021;SDS011;1015;49.756;6.994;2022-11-15T15:37:19;2.50;;;2.30;;
2021;SDS011;1015;49.756;6.994;2022-11-15T15:39:50;2.40;;;2.03;;
2021;SDS011;1015;49.756;6.994;2022-11-15T15:42:18;2.33;;;2.13;;
2021;SDS011;1015;49.756;6.994;2022-11-15T15:44:46;2.37;;;2.00;;
2021;SDS011;1015;49.756;6.994;2022-11-15T15:47:14;4.40;;;2.20;;
2021;SDS011;1015;49.756;6.994;2022-11-15T15:49:43;2.27;;;2.07;;
2021;SDS011;1015;49.756;6.994;2022-11-15T15:52:10;2.27;;;2.03;;